createdAt,value
2022-08-20T00:08:41.755Z,10
2022-08-20T00:18:48.723Z,14
2022-08-20T00:28:53.174Z,11
2022-08-20T00:39:00.283Z,12
2022-08-20T00:49:06.842Z,11
2022-08-20T00:59:13.694Z,10
2022-08-20T01:09:58.745Z,10
2022-08-20T01:20:17.125Z,12
2022-08-20T01:30:09.093Z,12
2022-08-20T01:40:17.185Z,10
2022-08-20T01:50:23.128Z,10
2022-08-20T02:00:30.321Z,11
2022-08-20T02:10:34.593Z,12
2022-08-20T02:20:41.256Z,10
2022-08-20T02:31:04.840Z,12
2022-08-20T02:41:06.721Z,11
2022-08-20T02:51:02.830Z,13
2022-08-20T03:01:14.547Z,12
2022-08-20T03:11:14.195Z,12
2022-08-20T03:21:23.411Z,12
2022-08-20T03:31:24.431Z,12
2022-08-20T03:41:29.840Z,13
2022-08-20T03:51:58.737Z,13
2022-08-20T04:02:29.035Z,12
2022-08-20T04:12:22.508Z,11
2022-08-20T04:22:28.976Z,13
2022-08-20T04:32:38.120Z,15
2022-08-20T04:42:39.624Z,17
2022-08-20T04:52:44.029Z,14
2022-08-20T05:02:55.320Z,15
2022-08-20T05:12:57.702Z,20
2022-08-20T05:23:07.355Z,13
2022-08-20T05:33:20.929Z,17
2022-08-20T05:43:15.923Z,18
2022-08-20T05:53:21.468Z,21
2022-08-20T06:03:26.888Z,19
2022-08-20T06:13:34.126Z,20
2022-08-20T06:23:59.309Z,18
2022-08-20T06:33:55.492Z,14
2022-08-20T06:43:59.670Z,19
2022-08-20T06:54:04.206Z,16
2022-08-20T07:04:12.988Z,17
2022-08-20T07:14:14.458Z,16
2022-08-20T07:24:20.729Z,11
2022-08-20T07:34:30.879Z,15
2022-08-20T07:44:33.620Z,15
2022-08-20T07:54:39.300Z,18
2022-08-20T08:04:44.410Z,19
2022-08-20T08:14:48.746Z,20
2022-08-20T08:25:06.289Z,20
2022-08-20T08:35:00.252Z,19
2022-08-20T08:45:06.157Z,16
2022-08-20T08:55:13.128Z,19
2022-08-20T09:05:42.510Z,19
2022-08-20T09:15:51.446Z,17
2022-08-20T09:25:57.426Z,16
2022-08-20T09:36:02.238Z,16
2022-08-20T09:46:09.474Z,12
2022-08-20T09:56:13.889Z,13
2022-08-20T10:06:21.504Z,12
2022-08-20T10:16:29.559Z,10
2022-08-20T10:26:31.013Z,9
2022-08-20T10:36:42.600Z,10
2022-08-20T10:46:43.347Z,12
2022-08-20T12:47:54.756Z,10
2022-08-20T12:57:59.989Z,12
2022-08-20T13:08:05.669Z,12
2022-08-20T13:18:26.413Z,13
2022-08-20T13:28:20.216Z,10
2022-08-20T13:38:25.279Z,11
2022-08-20T13:48:31.014Z,10
2022-08-20T13:58:38.351Z,9
2022-08-20T14:18:53.165Z,10
2022-08-20T14:28:55.205Z,8
2022-08-20T14:39:01.945Z,8
2022-08-20T14:49:08.530Z,7
2022-08-20T14:59:13.984Z,6
2022-08-20T15:09:19.174Z,7
2022-08-20T15:19:30.923Z,7
2022-08-20T15:29:30.307Z,11
2022-08-20T15:39:36.921Z,6
2022-08-20T15:49:42.542Z,7
2022-08-20T15:59:48.754Z,6
2022-08-20T16:09:54.280Z,6
2022-08-20T16:19:59.363Z,7
2022-08-20T16:30:05.401Z,7
2022-08-20T16:40:19.356Z,11
2022-08-20T16:50:16.551Z,7
2022-08-20T17:00:23.434Z,9
2022-08-20T17:10:34.428Z,10
2022-08-20T17:20:38.928Z,8
2022-08-20T17:30:50.647Z,9
2022-08-20T17:40:46.119Z,7
2022-08-20T17:50:51.210Z,8
2022-08-20T18:01:00.942Z,9
2022-08-20T18:11:06.899Z,10
2022-08-20T18:21:20.705Z,10
2022-08-20T18:31:19.522Z,7
2022-08-20T18:41:30.986Z,9
2022-08-20T18:51:30.201Z,8
2022-08-20T19:01:36.542Z,6
2022-08-20T19:11:42.049Z,8
2022-08-20T19:21:57.137Z,7
2022-08-20T19:31:50.911Z,11
2022-08-20T19:42:12.568Z,7
2022-08-20T19:52:12.342Z,8
2022-08-20T20:02:21.813Z,6
2022-08-20T20:12:23.453Z,6
2022-08-20T20:22:25.529Z,6
2022-08-20T20:32:31.599Z,6
2022-08-20T20:42:37.967Z,7
2022-08-20T20:52:51.672Z,6
2022-08-20T21:02:50.466Z,6
2022-08-20T21:12:56.948Z,9
2022-08-20T21:23:02.522Z,6
2022-08-20T21:33:08.754Z,7
2022-08-20T21:43:20.631Z,6
2022-08-20T21:53:49.542Z,7
2022-08-20T22:03:52.424Z,7
2022-08-20T22:13:52.968Z,5
2022-08-20T22:23:57.567Z,5
2022-08-20T22:34:03.851Z,6
2022-08-20T22:44:26.852Z,5
2022-08-20T22:54:18.858Z,6
2022-08-20T23:04:28.063Z,8
2022-08-20T23:14:30.682Z,6
2022-08-20T23:24:45.229Z,5
2022-08-20T23:34:44.121Z,6
2022-08-20T23:45:08.866Z,5
2022-08-20T23:55:02.751Z,7
